createdAt,value
2022-10-17T00:00:05.584Z,12.4
2022-10-17T00:02:09.691Z,12.4
2022-10-17T00:04:13.749Z,12.4
2022-10-17T00:06:17.823Z,12.4
2022-10-17T00:08:21.910Z,12.5
2022-10-17T00:10:26.025Z,12.6
2022-10-17T00:12:33.100Z,12.6
2022-10-17T00:14:37.175Z,12.6
2022-10-17T00:17:44.798Z,12.5
2022-10-17T00:19:48.893Z,12.4
2022-10-17T00:21:52.980Z,12.5
2022-10-17T00:23:57.047Z,12.6
2022-10-17T00:26:04.161Z,12.4
2022-10-17T00:28:08.237Z,12.3
2022-10-17T00:30:12.330Z,12.2
2022-10-17T00:32:16.413Z,12.3
2022-10-17T00:34:20.469Z,12.1
2022-10-17T00:36:24.561Z,12.2
2022-10-17T00:38:28.623Z,12.1
2022-10-17T00:40:35.731Z,12.1
2022-10-17T00:44:43.869Z,12.1
2022-10-17T00:46:47.951Z,12.1
2022-10-17T00:50:56.101Z,12.1
2022-10-17T00:59:15.397Z,12.5
2022-10-17T01:01:19.481Z,12.6
2022-10-17T01:03:23.526Z,12.7
2022-10-17T01:05:27.602Z,12.6
2022-10-17T01:07:34.705Z,12.6
2022-10-17T01:09:38.761Z,12.6
2022-10-17T01:11:42.838Z,12.4
2022-10-17T01:13:46.925Z,12.4
2022-10-17T01:16:05.366Z,12.3
2022-10-17T01:20:13.588Z,12.3
2022-10-17T01:22:20.615Z,12.4
2022-10-17T01:24:24.682Z,12.5
2022-10-17T01:26:28.786Z,12.7
2022-10-17T01:28:32.904Z,12.7
2022-10-17T01:32:41.009Z,12.7
2022-10-17T01:36:52.153Z,12.7
2022-10-17T01:41:00.328Z,12.5
2022-10-17T01:45:10.058Z,12.4
2022-10-17T01:47:14.097Z,12.4
2022-10-17T01:51:25.274Z,12.8
2022-10-17T01:53:29.346Z,12.8
2022-10-17T01:55:33.436Z,12.7
2022-10-17T01:59:41.596Z,12.6
2022-10-17T02:01:45.795Z,12.7
2022-10-17T02:03:49.740Z,12.5
2022-10-17T02:05:56.848Z,12.6
2022-10-17T02:08:00.928Z,12.5
2022-10-17T02:11:08.560Z,12.4
2022-10-17T02:13:12.633Z,12.4
2022-10-17T02:15:16.721Z,12.4
2022-10-17T02:17:20.798Z,12.4
2022-10-17T02:19:27.899Z,12.6
2022-10-17T02:21:31.973Z,12.8
2022-10-17T02:23:36.052Z,12.8
2022-10-17T02:25:40.128Z,12.6
2022-10-17T02:27:44.185Z,12.7
2022-10-17T02:29:48.289Z,12.8
2022-10-17T02:31:52.381Z,12.7
2022-10-17T02:33:59.466Z,12.7
2022-10-17T02:36:03.539Z,12.6
2022-10-17T02:38:07.611Z,12.5
2022-10-17T02:40:11.711Z,12.4
2022-10-17T02:44:19.858Z,12.7
2022-10-17T02:46:23.915Z,12.8
2022-10-17T02:48:31.014Z,12.8
2022-10-17T02:50:35.098Z,12.7
2022-10-17T02:52:39.185Z,12.6
2022-10-17T02:54:43.263Z,12.6
2022-10-17T02:56:47.329Z,12.6
2022-10-17T02:58:51.430Z,12.7
2022-10-17T03:00:55.522Z,12.7
2022-10-17T03:03:02.582Z,12.8
2022-10-17T03:05:06.673Z,12.8
2022-10-17T03:07:10.766Z,12.8
2022-10-17T03:08:14.291Z,12.8
2022-10-17T03:10:18.367Z,12.8
2022-10-17T03:12:22.451Z,12.9
2022-10-17T03:14:26.535Z,12.9
2022-10-17T03:16:33.638Z,13
2022-10-17T03:18:37.723Z,12.9
2022-10-17T03:20:41.796Z,13
2022-10-17T03:22:45.880Z,13
2022-10-17T03:24:49.977Z,13
2022-10-17T03:26:54.066Z,13.1
2022-10-17T03:28:58.185Z,13
2022-10-17T03:31:05.233Z,13.2
2022-10-17T03:33:09.319Z,13.1
2022-10-17T03:35:14.892Z,13.3
2022-10-17T03:37:17.470Z,13.3
2022-10-17T03:39:21.558Z,13.2
2022-10-17T03:41:25.659Z,13.3
2022-10-17T03:43:29.744Z,13.3
2022-10-17T03:45:36.841Z,13.4
2022-10-17T03:47:40.912Z,13.3
2022-10-17T03:49:45.014Z,13.3
2022-10-17T03:51:49.108Z,13.4
2022-10-17T03:53:53.191Z,13.4
2022-10-17T03:55:57.285Z,13.4
2022-10-17T03:58:01.394Z,13.4
2022-10-17T04:00:08.485Z,13.5
2022-10-17T04:02:12.584Z,13.4
2022-10-17T04:04:16.678Z,13.5
2022-10-17T04:09:28.439Z,13.6
2022-10-17T04:11:32.500Z,13.5
2022-10-17T04:13:39.594Z,13.6
2022-10-17T04:15:43.698Z,13.6
2022-10-17T04:17:48.642Z,13.7
2022-10-17T04:19:51.906Z,13.6
2022-10-17T04:21:55.949Z,13.7
2022-10-17T04:24:00.104Z,13.6
2022-10-17T04:26:04.145Z,13.7
2022-10-17T04:28:11.283Z,13.6
2022-10-17T04:32:19.431Z,13.7
2022-10-17T04:34:23.526Z,13.7
2022-10-17T04:36:27.629Z,13.6
2022-10-17T04:38:31.726Z,13.5
2022-10-17T04:40:35.834Z,13.6
2022-10-17T04:42:42.924Z,13.7
2022-10-17T04:44:47.017Z,13.5
2022-10-17T04:46:51.138Z,13.7
2022-10-17T04:48:55.241Z,13.6
2022-10-17T04:50:59.322Z,13.5
2022-10-17T04:53:03.436Z,13.5
2022-10-17T04:55:07.526Z,13.5
2022-10-17T04:57:14.629Z,13.4
2022-10-17T04:59:18.704Z,13.3
2022-10-17T05:01:22.878Z,13.4
2022-10-17T05:03:47.462Z,13.4
2022-10-17T05:05:51.491Z,13.4
2022-10-17T05:07:55.611Z,13.4
2022-10-17T05:10:02.709Z,13.5
2022-10-17T05:14:10.864Z,13.7
2022-10-17T05:18:19.084Z,13.6
2022-10-17T05:20:23.148Z,13.6
2022-10-17T05:22:27.535Z,13.7
2022-10-17T05:26:38.444Z,13.7
2022-10-17T05:28:42.617Z,13.8
2022-10-17T05:30:46.651Z,14
2022-10-17T05:32:50.757Z,13.9
2022-10-17T05:34:54.839Z,13.8
2022-10-17T05:36:58.944Z,13.9
2022-10-17T05:39:06.048Z,14.1
2022-10-17T05:41:10.144Z,14
2022-10-17T05:45:18.351Z,14.1
2022-10-17T05:47:22.449Z,14.2
2022-10-17T05:51:30.698Z,14.3
2022-10-17T05:53:37.765Z,14.1
2022-10-17T05:55:41.868Z,14.2
2022-10-17T05:57:45.953Z,14.1
2022-10-17T05:58:51.590Z,14.2
2022-10-17T06:05:01.802Z,14.3
2022-10-17T06:07:08.903Z,14.4
2022-10-17T06:09:13.021Z,14.4
2022-10-17T06:11:17.125Z,14.5
2022-10-17T06:13:21.233Z,14.4
2022-10-17T06:15:25.348Z,14.2
2022-10-17T06:17:29.429Z,14.3
2022-10-17T06:25:48.857Z,14.3
2022-10-17T06:32:01.145Z,14.5
2022-10-17T06:36:12.362Z,14.7
2022-10-17T06:38:16.479Z,14.8
2022-10-17T06:40:20.597Z,14.8
2022-10-17T06:42:24.698Z,14.7
2022-10-17T06:44:28.788Z,14.8
2022-10-17T06:46:32.887Z,14.9
2022-10-17T06:48:37.020Z,14.9
2022-10-17T06:50:44.116Z,15.1
2022-10-17T06:52:48.229Z,15.1
2022-10-17T06:54:52.352Z,15.2
2022-10-17T07:02:08.206Z,15.3
2022-10-17T07:04:15.319Z,15.3
2022-10-17T07:06:19.442Z,15.3
2022-10-17T07:08:23.526Z,15.2
2022-10-17T07:10:27.645Z,15.3
2022-10-17T07:12:31.731Z,15.3
2022-10-17T07:14:35.860Z,15.4
2022-10-17T07:16:39.978Z,15.4
2022-10-17T07:18:47.093Z,15.5
2022-10-17T07:20:51.197Z,15.5
2022-10-17T07:22:55.308Z,15.5
2022-10-17T07:24:59.413Z,15.5
2022-10-17T07:27:03.523Z,15.5
2022-10-17T07:29:07.754Z,15.6
2022-10-17T07:31:11.762Z,15.5
2022-10-17T07:33:18.893Z,15.7
2022-10-17T07:35:23.003Z,15.7
2022-10-17T07:37:27.386Z,15.7
2022-10-17T07:39:31.209Z,15.7
2022-10-17T07:41:35.315Z,15.9
2022-10-17T07:43:40.997Z,15.9
2022-10-17T07:52:00.416Z,16.1
2022-10-17T07:53:03.973Z,16.1
2022-10-17T07:55:08.110Z,16.1
2022-10-17T07:57:12.212Z,16.2
2022-10-17T07:59:16.341Z,16.2
2022-10-17T08:01:23.475Z,16.2
2022-10-17T08:05:31.691Z,16.1
2022-10-17T08:07:35.816Z,16.1
2022-10-17T08:09:39.942Z,16.1
2022-10-17T08:11:44.151Z,16
2022-10-17T08:13:48.164Z,16
2022-10-17T08:15:55.294Z,16
2022-10-17T08:17:59.426Z,16.1
2022-10-17T08:20:03.577Z,16.2
2022-10-17T08:22:07.659Z,16.2
2022-10-17T08:24:11.794Z,16.2
2022-10-17T08:26:15.899Z,16.2
2022-10-17T08:30:27.182Z,16.2
2022-10-17T08:32:31.545Z,16.3
2022-10-17T08:34:35.379Z,16.4
2022-10-17T08:36:39.501Z,16.5
2022-10-17T08:38:43.886Z,16.5
2022-10-17T08:40:47.734Z,16.6
2022-10-17T08:42:51.855Z,16.7
2022-10-17T08:44:58.979Z,16.6
2022-10-17T08:47:03.089Z,16.5
2022-10-17T08:49:10.027Z,16.6
2022-10-17T08:51:31.478Z,16.5
2022-10-17T08:53:35.566Z,16.4
2022-10-17T08:55:42.802Z,16.4
2022-10-17T08:57:46.820Z,16.4
2022-10-17T08:59:50.921Z,16.4
2022-10-17T09:01:55.117Z,16.4
2022-10-17T09:03:59.191Z,16.4
2022-10-17T09:06:03.319Z,16.4
2022-10-17T09:08:07.440Z,16.4
2022-10-17T09:12:18.703Z,16.4
2022-10-17T09:14:22.805Z,16.4
2022-10-17T09:16:26.933Z,16.4
2022-10-17T09:18:31.070Z,16.4
2022-10-17T09:20:35.177Z,16.4
2022-10-17T09:22:39.314Z,16.4
2022-10-17T09:24:43.432Z,16.4
2022-10-17T09:26:50.551Z,16.3
2022-10-17T09:28:54.707Z,16.3
2022-10-17T09:30:58.809Z,16.3
2022-10-17T09:33:02.934Z,16.3
2022-10-17T09:35:07.042Z,16.3
2022-10-17T09:37:11.166Z,16.3
2022-10-17T09:39:15.308Z,16.3
2022-10-17T09:41:44.239Z,16.3
2022-10-17T09:43:26.541Z,16.3
2022-10-17T09:45:30.677Z,16.3
2022-10-17T09:48:38.350Z,16.3
2022-10-17T09:50:42.475Z,16.2
2022-10-17T09:53:28.144Z,16.2
2022-10-17T09:54:53.728Z,16.2
2022-10-17T09:56:57.844Z,16.2
2022-10-17T09:59:01.976Z,16.2
2022-10-17T10:01:06.150Z,16.2
2022-10-17T10:03:10.233Z,16.2
2022-10-17T10:05:14.332Z,16.2
2022-10-17T10:07:18.479Z,16.2
2022-10-17T10:11:29.730Z,16.2
2022-10-17T10:13:33.849Z,16.2
2022-10-17T10:15:37.995Z,16.2
2022-10-17T10:17:43.217Z,16.2
2022-10-17T10:19:46.213Z,16.2
2022-10-17T10:21:51.318Z,16.3
2022-10-17T10:23:57.461Z,16.3
2022-10-17T10:26:01.569Z,16.3
2022-10-17T10:28:05.707Z,16.3
2022-10-17T10:30:10.984Z,16.4
2022-10-17T10:32:13.927Z,16.4
2022-10-17T10:34:18.062Z,16.4
2022-10-17T10:36:22.163Z,16.3
2022-10-17T10:38:29.293Z,16.3
2022-10-17T10:40:33.484Z,16.3
2022-10-17T10:43:41.115Z,16.3
2022-10-17T10:45:48.969Z,16.4
2022-10-17T10:47:49.355Z,16.3
2022-10-17T10:54:04.730Z,16.3
2022-10-17T10:56:08.857Z,16.4
2022-10-17T10:58:12.983Z,16.4
2022-10-17T11:00:17.256Z,16.4
2022-10-17T11:02:21.217Z,16.4
2022-10-17T11:04:25.334Z,16.4
2022-10-17T11:06:32.480Z,16.4
2022-10-17T11:08:36.617Z,16.4
2022-10-17T11:10:40.717Z,16.4
2022-10-17T11:14:48.985Z,16.5
2022-10-17T11:16:53.078Z,16.4
2022-10-17T11:18:57.217Z,16.4
2022-10-17T11:21:04.387Z,16.4
2022-10-17T11:23:08.469Z,16.4
2022-10-17T11:25:12.585Z,16.4
2022-10-17T11:27:16.729Z,16.5
2022-10-17T11:29:20.835Z,16.5
2022-10-17T11:31:24.970Z,16.5
2022-10-17T11:33:29.101Z,16.5
2022-10-17T11:35:36.233Z,16.6
2022-10-17T11:37:40.962Z,16.6
2022-10-17T11:40:48.044Z,16.7
2022-10-17T11:42:52.168Z,16.7
2022-10-17T11:44:56.301Z,16.7
2022-10-17T11:47:00.403Z,16.7
2022-10-17T11:49:07.653Z,16.8
2022-10-17T11:55:19.897Z,17
2022-10-17T11:57:24.396Z,16.9
2022-10-17T11:59:28.141Z,17
2022-10-17T12:01:32.291Z,17.1
2022-10-17T12:09:51.797Z,17
2022-10-17T12:14:02.630Z,17.1
2022-10-17T12:18:11.308Z,17
2022-10-17T12:20:15.412Z,17
2022-10-17T12:22:19.560Z,17
2022-10-17T12:24:23.662Z,17
2022-10-17T12:26:27.813Z,17.1
2022-10-17T12:28:31.992Z,17.1
2022-10-17T12:30:36.051Z,17.1
2022-10-17T12:33:00.519Z,17.1
2022-10-17T12:34:47.310Z,17.1
2022-10-17T12:36:51.440Z,17
2022-10-17T12:39:15.805Z,17.1
2022-10-17T12:41:19.923Z,17
2022-10-17T12:43:24.055Z,17
2022-10-17T12:45:31.180Z,17
2022-10-17T12:47:35.331Z,17.1
2022-10-17T12:49:39.465Z,17.1
2022-10-17T12:51:43.570Z,17.1
2022-10-17T12:53:47.713Z,17.1
2022-10-17T12:55:51.823Z,17.1
2022-10-17T13:00:03.137Z,17.1
2022-10-17T13:02:07.293Z,17.1
2022-10-17T13:04:11.362Z,17.1
2022-10-17T13:06:15.487Z,17.1
2022-10-17T13:08:19.606Z,17.1
2022-10-17T13:10:23.773Z,17.1
2022-10-17T13:12:28.128Z,17.1
2022-10-17T13:14:34.964Z,17.1
2022-10-17T13:16:39.103Z,17
2022-10-17T13:18:43.237Z,17
2022-10-17T13:20:47.340Z,17
2022-10-17T13:22:51.493Z,17
2022-10-17T13:24:55.614Z,17.1
2022-10-17T13:26:59.715Z,17.1
2022-10-17T13:29:07.064Z,17.1
2022-10-17T13:31:10.990Z,17
2022-10-17T13:33:15.103Z,17
2022-10-17T13:34:18.670Z,17
2022-10-17T13:36:22.805Z,17
2022-10-17T13:38:26.930Z,17.1
2022-10-17T13:40:49.013Z,17.1
2022-10-17T13:42:39.763Z,17.1
2022-10-17T13:44:43.867Z,17.1
2022-10-17T13:46:47.968Z,17.1
2022-10-17T13:48:52.113Z,17
2022-10-17T13:53:00.348Z,17
2022-10-17T13:55:04.476Z,17
2022-10-17T13:57:11.606Z,17
2022-10-17T13:59:15.738Z,17
2022-10-17T14:01:19.921Z,17
2022-10-17T14:03:23.983Z,17.1
2022-10-17T14:05:28.102Z,17.1
2022-10-17T14:07:46.116Z,17.1
2022-10-17T14:09:36.371Z,17.1
2022-10-17T14:11:43.517Z,17.1
2022-10-17T14:13:47.613Z,17.1
2022-10-17T14:15:51.748Z,17.2
2022-10-17T14:17:55.882Z,17.2
2022-10-17T14:20:23.201Z,17.2
2022-10-17T14:22:04.124Z,17.2
2022-10-17T14:24:08.262Z,17.2
2022-10-17T14:26:15.409Z,17.2
2022-10-17T14:28:19.516Z,17.3
2022-10-17T14:30:38.787Z,17.3
2022-10-17T14:33:31.348Z,17.3
2022-10-17T14:37:39.597Z,17.3
2022-10-17T14:48:03.237Z,17.4
2022-10-17T14:52:14.915Z,17.5
2022-10-17T14:56:22.751Z,17.6
2022-10-17T15:00:31.016Z,17.6
2022-10-17T15:02:35.125Z,17.5
2022-10-17T15:04:39.257Z,17.5
2022-10-17T15:06:55.364Z,17.5
2022-10-17T15:10:54.648Z,17.4
2022-10-17T15:15:02.893Z,17.4
2022-10-17T15:17:06.997Z,17.4
2022-10-17T15:19:11.149Z,17.3
2022-10-17T15:21:26.475Z,17.3
2022-10-17T15:23:22.466Z,17.2
2022-10-17T15:25:26.528Z,17.2
2022-10-17T15:28:34.288Z,17.2
2022-10-17T15:30:38.360Z,17.1
2022-10-17T15:32:42.490Z,17.1
2022-10-17T15:34:46.621Z,17.1
2022-10-17T15:36:53.732Z,17.1
2022-10-17T15:38:57.857Z,17
2022-10-17T15:41:01.992Z,17
2022-10-17T15:43:06.135Z,17
2022-10-17T15:45:10.265Z,16.9
2022-10-17T15:47:14.380Z,16.9
2022-10-17T15:49:18.532Z,16.9
2022-10-17T15:51:25.654Z,16.8
2022-10-17T15:53:29.813Z,16.8
2022-10-17T15:55:33.936Z,16.8
2022-10-17T15:57:38.075Z,16.7
2022-10-17T16:05:57.587Z,16.6
2022-10-17T16:10:05.835Z,16.5
2022-10-17T16:12:10.012Z,16.5
2022-10-17T16:14:14.099Z,16.4
2022-10-17T16:16:18.200Z,16.4
2022-10-17T16:18:22.330Z,16.3
2022-10-17T16:20:29.467Z,16.3
2022-10-17T16:22:33.775Z,16.3
2022-10-17T16:24:37.731Z,16.3
2022-10-17T16:27:01.979Z,16.1
2022-10-17T16:29:06.155Z,16.1
2022-10-17T16:31:10.230Z,16
2022-10-17T16:33:17.369Z,15.9
2022-10-17T16:35:21.511Z,15.8
2022-10-17T16:37:25.587Z,15.8
2022-10-17T16:39:29.729Z,15.8
2022-10-17T16:41:33.832Z,15.7
2022-10-17T16:43:37.973Z,15.7
2022-10-17T16:45:42.099Z,15.7
2022-10-17T16:47:49.224Z,15.8
2022-10-17T16:49:53.340Z,15.8
2022-10-17T16:51:57.476Z,15.7
2022-10-17T16:54:01.588Z,15.7
2022-10-17T16:56:05.712Z,15.7
2022-10-17T16:58:09.825Z,15.7
2022-10-17T17:00:13.964Z,15.7
2022-10-17T17:02:21.464Z,15.6
2022-10-17T17:04:25.208Z,15.6
2022-10-17T17:06:29.351Z,15.6
2022-10-17T17:08:33.452Z,15.7
2022-10-17T17:10:37.589Z,15.6
2022-10-17T17:12:41.682Z,15.7
2022-10-17T17:14:45.826Z,15.7
2022-10-17T17:16:52.951Z,15.5
2022-10-17T17:18:57.061Z,15.7
2022-10-17T17:21:01.194Z,15.7
2022-10-17T17:22:04.745Z,15.6
2022-10-17T17:28:17.110Z,15.6
2022-10-17T17:30:24.225Z,15.5
2022-10-17T17:32:28.343Z,15.5
2022-10-17T17:34:32.470Z,15.7
2022-10-17T17:36:36.592Z,15.7
2022-10-17T17:38:40.712Z,15.6
2022-10-17T17:40:49.597Z,15.7
2022-10-17T17:42:48.973Z,15.7
2022-10-17T17:44:56.075Z,15.5
2022-10-17T17:47:00.168Z,15.6
2022-10-17T17:49:04.283Z,15.5
2022-10-17T17:51:08.409Z,15.7
2022-10-17T17:53:12.536Z,15.5
2022-10-17T17:55:16.648Z,15.7
2022-10-17T17:57:20.766Z,15.6
2022-10-17T17:59:27.895Z,15.6
2022-10-17T18:01:32.081Z,15.6
2022-10-17T18:03:36.135Z,15.6
2022-10-17T18:05:40.254Z,15.6
2022-10-17T18:07:44.362Z,15.7
2022-10-17T18:09:48.468Z,15.7
2022-10-17T18:11:52.623Z,15.7
2022-10-17T18:14:00.550Z,15.7
2022-10-17T18:16:04.660Z,15.7
2022-10-17T18:18:08.789Z,15.7
2022-10-17T18:19:12.353Z,15.7
2022-10-17T18:21:16.449Z,15.6
2022-10-17T18:23:20.595Z,15.7
2022-10-17T18:27:31.811Z,15.5
2022-10-17T18:29:35.922Z,15.5
2022-10-17T18:35:48.278Z,15.5
2022-10-17T18:39:56.500Z,15.5
2022-10-17T18:44:07.739Z,15.6
2022-10-17T18:48:15.970Z,15.6
2022-10-17T18:54:28.283Z,15.6
2022-10-17T18:58:39.520Z,15.5
2022-10-17T19:00:43.642Z,15.6
2022-10-17T19:02:47.762Z,15.6
2022-10-17T19:04:51.927Z,15.4
2022-10-17T19:06:55.965Z,15.5
2022-10-17T19:09:00.140Z,15.4
2022-10-17T19:11:07.206Z,15.4
2022-10-17T19:13:11.346Z,15.6
2022-10-17T19:16:18.990Z,15.6
2022-10-17T19:18:23.122Z,15.5
2022-10-17T19:20:27.222Z,15.4
2022-10-17T19:24:38.468Z,15.4
2022-10-17T19:26:42.584Z,15.4
2022-10-17T19:28:46.704Z,15.3
2022-10-17T19:30:50.777Z,15.5
2022-10-17T19:32:54.905Z,15.6
2022-10-17T19:34:58.997Z,15.4
2022-10-17T19:37:03.123Z,15.5
2022-10-17T19:39:11.797Z,15.4
2022-10-17T19:41:15.862Z,15.4
2022-10-17T19:43:19.958Z,15.4
2022-10-17T19:45:24.084Z,15.4
2022-10-17T19:47:28.172Z,15.5
2022-10-17T19:51:36.400Z,15.4
2022-10-17T19:53:43.508Z,15.3
2022-10-17T19:55:47.624Z,15.3
2022-10-17T19:57:51.736Z,15.4
2022-10-17T19:59:56.213Z,15.4
2022-10-17T20:01:59.996Z,15.3
2022-10-17T20:04:04.071Z,15.5
2022-10-17T20:06:08.164Z,15.5
2022-10-17T20:08:15.470Z,15.4
2022-10-17T20:10:19.435Z,15.5
2022-10-17T20:12:23.525Z,15.5
2022-10-17T20:14:47.351Z,15.7
2022-10-17T20:18:55.582Z,15.7
2022-10-17T20:21:02.771Z,15.6
2022-10-17T20:23:06.817Z,15.7
2022-10-17T20:25:10.951Z,15.8
2022-10-17T20:27:15.045Z,15.6
2022-10-17T20:29:19.152Z,15.7
2022-10-17T20:31:23.266Z,15.7
2022-10-17T20:33:31.835Z,15.7
2022-10-17T20:35:34.555Z,15.8
2022-10-17T20:37:41.630Z,15.8
2022-10-17T20:39:42.746Z,15.8
2022-10-17T20:41:46.851Z,15.9
2022-10-17T20:43:50.968Z,15.9
2022-10-17T20:46:03.529Z,15.8
2022-10-17T20:47:59.328Z,15.8
2022-10-17T20:50:06.330Z,15.8
2022-10-17T20:52:10.468Z,16
2022-10-17T20:54:14.610Z,15.8
2022-10-17T20:56:18.683Z,15.8
2022-10-17T20:58:22.796Z,15.7
2022-10-17T21:00:26.911Z,15.8
2022-10-17T21:02:31.033Z,15.7
2022-10-17T21:04:46.392Z,15.7
2022-10-17T21:06:42.294Z,15.8
2022-10-17T21:08:46.380Z,15.8
2022-10-17T21:11:54.126Z,15.7
2022-10-17T21:13:58.189Z,15.8
2022-10-17T21:16:02.318Z,15.7
2022-10-17T21:18:09.456Z,15.7
2022-10-17T21:20:13.564Z,15.6
2022-10-17T21:22:17.687Z,15.6
2022-10-17T21:24:21.788Z,15.5
2022-10-17T21:26:25.909Z,15.7
2022-10-17T21:28:30.136Z,15.6
2022-10-17T21:30:34.153Z,15.6
2022-10-17T21:32:51.484Z,15.5
2022-10-17T21:34:45.384Z,15.5
2022-10-17T21:36:49.518Z,15.6
2022-10-17T21:38:53.645Z,15.4
2022-10-17T21:40:57.737Z,15.4
2022-10-17T21:43:01.853Z,15.3
2022-10-17T21:45:15.389Z,15.4
2022-10-17T21:47:13.127Z,15.5
2022-10-17T21:49:17.249Z,15.5
2022-10-17T21:51:21.366Z,15.5
2022-10-17T21:53:25.481Z,15.3
2022-10-17T21:55:29.608Z,15.3
2022-10-17T21:57:33.709Z,15.4
2022-10-17T21:59:37.822Z,15.3
2022-10-17T22:01:45.022Z,15.4
2022-10-17T22:06:56.756Z,15.1
2022-10-17T22:09:00.844Z,15.1
2022-10-17T22:11:04.957Z,15
2022-10-17T22:13:09.056Z,15
2022-10-17T22:15:16.214Z,15.1
2022-10-17T22:17:20.300Z,15.2
2022-10-17T22:19:24.420Z,15.1
2022-10-17T22:21:28.521Z,15.2
2022-10-17T22:23:32.651Z,15.1
2022-10-17T22:25:36.759Z,14.9
2022-10-17T22:27:40.865Z,14.9
2022-10-17T22:29:47.978Z,15.1
2022-10-17T22:31:52.084Z,15
2022-10-17T22:33:56.230Z,15
2022-10-17T22:36:00.345Z,15
2022-10-17T22:38:04.463Z,15
2022-10-17T22:40:08.581Z,15.1
2022-10-17T22:42:12.705Z,15.1
2022-10-17T22:50:32.181Z,15.1
2022-10-17T22:56:44.471Z,15
2022-10-17T22:58:51.577Z,15
2022-10-17T23:00:55.699Z,15.1
2022-10-17T23:02:59.816Z,15.1
2022-10-17T23:04:03.366Z,15
2022-10-17T23:06:07.466Z,15
2022-10-17T23:08:11.574Z,15
2022-10-17T23:10:15.695Z,15.2
2022-10-17T23:12:22.832Z,14.9
2022-10-17T23:14:26.908Z,14.9
2022-10-17T23:16:31.034Z,14.8
2022-10-17T23:18:35.150Z,14.8
2022-10-17T23:20:39.254Z,14.7
2022-10-17T23:22:43.361Z,14.7
2022-10-17T23:24:47.453Z,14.7
2022-10-17T23:26:54.579Z,14.6
2022-10-17T23:28:58.731Z,14.7
2022-10-17T23:31:02.819Z,14.5
2022-10-17T23:35:11.031Z,14.6
2022-10-17T23:37:15.147Z,14.7
2022-10-17T23:39:22.896Z,14.6
2022-10-17T23:41:26.351Z,14.5
2022-10-17T23:45:36.867Z,14.6
2022-10-17T23:47:38.708Z,14.7
2022-10-17T23:49:42.792Z,14.5
2022-10-17T23:51:46.917Z,14.6
2022-10-17T23:53:51.034Z,14.7
2022-10-17T23:55:58.146Z,14.7
2022-10-17T23:58:02.274Z,14.7
